sensor_id;sensor_type;location;lat;lon;timestamp;P1;durP1;ratioP1;P2;durP2;ratioP2
61385;SDS011;47256;18.904;-99.054;2023-11-18T00:00:05;18.02;;;8.40;;
61385;SDS011;47256;18.904;-99.054;2023-11-18T00:02:38;21.08;;;8.00;;
61385;SDS011;47256;18.904;-99.054;2023-11-18T00:05:08;15.20;;;6.68;;
61385;SDS011;47256;18.904;-99.054;2023-11-18T00:07:36;17.63;;;6.40;;
61385;SDS011;47256;18.904;-99.054;2023-11-18T00:10:03;12.93;;;6.65;;
61385;SDS011;47256;18.904;-99.054;2023-11-18T00:12:32;20.65;;;7.90;;
61385;SDS011;47256;18.904;-99.054;2023-11-18T00:15:02;15.68;;;7.38;;
61385;SDS011;47256;18.904;-99.054;2023-11-18T00:17:30;17.75;;;7.93;;
61385;SDS011;47256;18.904;-99.054;2023-11-18T00:19:58;26.25;;;8.57;;
61385;SDS011;47256;18.904;-99.054;2023-11-18T00:22:25;14.40;;;7.65;;
61385;SDS011;47256;18.904;-99.054;2023-11-18T00:24:53;17.80;;;7.75;;
61385;SDS011;47256;18.904;-99.054;2023-11-18T00:27:21;15.95;;;8.00;;
61385;SDS011;47256;18.904;-99.054;2023-11-18T00:29:48;14.77;;;7.47;;
61385;SDS011;47256;18.904;-99.054;2023-11-18T00:32:15;19.80;;;7.93;;
61385;SDS011;47256;18.904;-99.054;2023-11-18T00:34:43;16.75;;;7.93;;
61385;SDS011;47256;18.904;-99.054;2023-11-18T00:37:11;21.80;;;9.15;;
61385;SDS011;47256;18.904;-99.054;2023-11-18T00:39:38;15.98;;;9.32;;
61385;SDS011;47256;18.904;-99.054;2023-11-18T00:42:08;21.33;;;8.60;;
61385;SDS011;47256;18.904;-99.054;2023-11-18T00:44:36;21.98;;;9.27;;
61385;SDS011;47256;18.904;-99.054;2023-11-18T00:47:03;21.23;;;9.35;;
61385;SDS011;47256;18.904;-99.054;2023-11-18T00:49:30;19.33;;;9.77;;
61385;SDS011;47256;18.904;-99.054;2023-11-18T00:52:00;21.15;;;8.57;;
61385;SDS011;47256;18.904;-99.054;2023-11-18T00:54:29;33.08;;;9.55;;
61385;SDS011;47256;18.904;-99.054;2023-11-18T00:56:56;30.77;;;9.43;;
61385;SDS011;47256;18.904;-99.054;2023-11-18T00:59:23;20.58;;;8.55;;
61385;SDS011;47256;18.904;-99.054;2023-11-18T01:01:51;23.13;;;8.98;;
61385;SDS011;47256;18.904;-99.054;2023-11-18T01:04:19;16.77;;;9.00;;
61385;SDS011;47256;18.904;-99.054;2023-11-18T01:06:46;13.38;;;7.90;;
61385;SDS011;47256;18.904;-99.054;2023-11-18T01:09:14;26.52;;;8.27;;
61385;SDS011;47256;18.904;-99.054;2023-11-18T01:11:42;24.00;;;10.25;;
61385;SDS011;47256;18.904;-99.054;2023-11-18T01:14:11;31.42;;;9.18;;
61385;SDS011;47256;18.904;-99.054;2023-11-18T01:16:38;33.97;;;10.13;;
61385;SDS011;47256;18.904;-99.054;2023-11-18T01:19:07;22.45;;;9.15;;
61385;SDS011;47256;18.904;-99.054;2023-11-18T01:21:35;21.92;;;7.95;;
61385;SDS011;47256;18.904;-99.054;2023-11-18T01:24:02;19.92;;;7.28;;
61385;SDS011;47256;18.904;-99.054;2023-11-18T01:26:31;19.95;;;9.23;;
61385;SDS011;47256;18.904;-99.054;2023-11-18T01:29:00;21.42;;;9.65;;
61385;SDS011;47256;18.904;-99.054;2023-11-18T01:31:27;19.77;;;8.85;;
61385;SDS011;47256;18.904;-99.054;2023-11-18T01:33:54;15.82;;;8.55;;
61385;SDS011;47256;18.904;-99.054;2023-11-18T01:36:22;13.88;;;8.07;;
61385;SDS011;47256;18.904;-99.054;2023-11-18T01:38:50;15.65;;;7.63;;
61385;SDS011;47256;18.904;-99.054;2023-11-18T01:41:18;17.92;;;7.55;;
61385;SDS011;47256;18.904;-99.054;2023-11-18T01:43:46;14.23;;;7.93;;
61385;SDS011;47256;18.904;-99.054;2023-11-18T01:46:16;18.10;;;7.88;;
61385;SDS011;47256;18.904;-99.054;2023-11-18T01:48:44;17.17;;;7.45;;
61385;SDS011;47256;18.904;-99.054;2023-11-18T01:51:14;18.73;;;8.48;;
61385;SDS011;47256;18.904;-99.054;2023-11-18T01:53:42;20.73;;;8.05;;
61385;SDS011;47256;18.904;-99.054;2023-11-18T01:56:10;18.15;;;8.80;;
61385;SDS011;47256;18.904;-99.054;2023-11-18T01:58:37;19.85;;;8.27;;
61385;SDS011;47256;18.904;-99.054;2023-11-18T02:01:06;19.73;;;10.15;;
61385;SDS011;47256;18.904;-99.054;2023-11-18T02:03:35;25.30;;;11.00;;
61385;SDS011;47256;18.904;-99.054;2023-11-18T02:06:04;25.58;;;10.88;;
61385;SDS011;47256;18.904;-99.054;2023-11-18T02:08:33;28.80;;;12.98;;
61385;SDS011;47256;18.904;-99.054;2023-11-18T02:11:17;30.33;;;12.70;;
61385;SDS011;47256;18.904;-99.054;2023-11-18T02:13:55;34.28;;;11.80;;
61385;SDS011;47256;18.904;-99.054;2023-11-18T02:16:30;15.77;;;8.95;;
61385;SDS011;47256;18.904;-99.054;2023-11-18T02:18:58;20.27;;;10.32;;
61385;SDS011;47256;18.904;-99.054;2023-11-18T02:21:27;27.27;;;12.07;;
61385;SDS011;47256;18.904;-99.054;2023-11-18T02:24:00;40.55;;;14.00;;
61385;SDS011;47256;18.904;-99.054;2023-11-18T02:26:27;50.88;;;20.08;;
61385;SDS011;47256;18.904;-99.054;2023-11-18T02:28:54;34.88;;;16.73;;
61385;SDS011;47256;18.904;-99.054;2023-11-18T02:31:30;47.33;;;23.88;;
61385;SDS011;47256;18.904;-99.054;2023-11-18T02:34:05;36.95;;;18.23;;
61385;SDS011;47256;18.904;-99.054;2023-11-18T02:36:43;32.13;;;15.45;;
61385;SDS011;47256;18.904;-99.054;2023-11-18T02:39:20;30.00;;;15.45;;
61385;SDS011;47256;18.904;-99.054;2023-11-18T02:41:56;21.85;;;13.27;;
61385;SDS011;47256;18.904;-99.054;2023-11-18T02:44:29;35.00;;;14.68;;
61385;SDS011;47256;18.904;-99.054;2023-11-18T02:46:59;28.35;;;13.45;;
61385;SDS011;47256;18.904;-99.054;2023-11-18T02:49:27;35.65;;;14.18;;
61385;SDS011;47256;18.904;-99.054;2023-11-18T02:51:55;32.25;;;12.82;;
61385;SDS011;47256;18.904;-99.054;2023-11-18T02:54:24;31.25;;;11.52;;
61385;SDS011;47256;18.904;-99.054;2023-11-18T02:56:52;29.55;;;11.88;;
61385;SDS011;47256;18.904;-99.054;2023-11-18T02:59:21;32.33;;;11.88;;
61385;SDS011;47256;18.904;-99.054;2023-11-18T03:01:48;19.10;;;10.10;;
61385;SDS011;47256;18.904;-99.054;2023-11-18T03:04:23;18.50;;;9.73;;
61385;SDS011;47256;18.904;-99.054;2023-11-18T03:06:50;20.52;;;10.13;;
61385;SDS011;47256;18.904;-99.054;2023-11-18T03:09:17;16.38;;;10.88;;
61385;SDS011;47256;18.904;-99.054;2023-11-18T03:11:45;20.00;;;10.18;;
61385;SDS011;47256;18.904;-99.054;2023-11-18T03:14:13;15.43;;;9.60;;
61385;SDS011;47256;18.904;-99.054;2023-11-18T03:16:40;22.30;;;12.05;;
61385;SDS011;47256;18.904;-99.054;2023-11-18T03:19:08;33.38;;;13.18;;
61385;SDS011;47256;18.904;-99.054;2023-11-18T03:21:35;33.50;;;11.90;;
61385;SDS011;47256;18.904;-99.054;2023-11-18T03:24:03;25.70;;;10.52;;
61385;SDS011;47256;18.904;-99.054;2023-11-18T03:26:30;26.63;;;10.75;;
61385;SDS011;47256;18.904;-99.054;2023-11-18T03:28:58;22.00;;;10.13;;
61385;SDS011;47256;18.904;-99.054;2023-11-18T03:31:25;27.48;;;9.85;;
61385;SDS011;47256;18.904;-99.054;2023-11-18T03:33:55;22.45;;;10.23;;
61385;SDS011;47256;18.904;-99.054;2023-11-18T03:36:22;12.75;;;8.55;;
61385;SDS011;47256;18.904;-99.054;2023-11-18T03:38:50;26.63;;;9.35;;
61385;SDS011;47256;18.904;-99.054;2023-11-18T03:41:17;16.50;;;9.13;;
61385;SDS011;47256;18.904;-99.054;2023-11-18T03:43:50;19.10;;;8.95;;
61385;SDS011;47256;18.904;-99.054;2023-11-18T03:46:17;38.25;;;9.50;;
61385;SDS011;47256;18.904;-99.054;2023-11-18T03:48:44;23.10;;;10.15;;
61385;SDS011;47256;18.904;-99.054;2023-11-18T03:51:12;19.35;;;9.82;;
61385;SDS011;47256;18.904;-99.054;2023-11-18T03:53:43;23.02;;;9.95;;
61385;SDS011;47256;18.904;-99.054;2023-11-18T03:56:10;18.63;;;9.02;;
61385;SDS011;47256;18.904;-99.054;2023-11-18T03:58:44;20.50;;;9.15;;
61385;SDS011;47256;18.904;-99.054;2023-11-18T04:01:23;18.50;;;9.07;;
61385;SDS011;47256;18.904;-99.054;2023-11-18T04:03:54;27.30;;;10.75;;
61385;SDS011;47256;18.904;-99.054;2023-11-18T04:06:22;23.80;;;9.93;;
61385;SDS011;47256;18.904;-99.054;2023-11-18T04:08:51;23.50;;;10.82;;
61385;SDS011;47256;18.904;-99.054;2023-11-18T04:11:18;20.05;;;10.65;;
61385;SDS011;47256;18.904;-99.054;2023-11-18T04:13:45;21.55;;;10.45;;
61385;SDS011;47256;18.904;-99.054;2023-11-18T04:16:15;22.70;;;11.07;;
61385;SDS011;47256;18.904;-99.054;2023-11-18T04:18:43;21.48;;;9.85;;
61385;SDS011;47256;18.904;-99.054;2023-11-18T04:21:11;24.58;;;10.68;;
61385;SDS011;47256;18.904;-99.054;2023-11-18T04:23:40;22.63;;;10.80;;
61385;SDS011;47256;18.904;-99.054;2023-11-18T04:26:08;22.10;;;11.30;;
61385;SDS011;47256;18.904;-99.054;2023-11-18T04:28:36;21.17;;;11.75;;
61385;SDS011;47256;18.904;-99.054;2023-11-18T04:31:03;23.83;;;12.23;;
61385;SDS011;47256;18.904;-99.054;2023-11-18T04:33:33;25.38;;;13.73;;
61385;SDS011;47256;18.904;-99.054;2023-11-18T04:36:00;24.00;;;12.40;;
61385;SDS011;47256;18.904;-99.054;2023-11-18T04:38:28;25.95;;;13.60;;
61385;SDS011;47256;18.904;-99.054;2023-11-18T04:40:55;44.30;;;18.73;;
61385;SDS011;47256;18.904;-99.054;2023-11-18T04:43:23;46.75;;;18.48;;
61385;SDS011;47256;18.904;-99.054;2023-11-18T04:45:51;33.75;;;16.77;;
61385;SDS011;47256;18.904;-99.054;2023-11-18T04:48:18;35.88;;;17.08;;
61385;SDS011;47256;18.904;-99.054;2023-11-18T04:50:47;40.42;;;16.50;;
61385;SDS011;47256;18.904;-99.054;2023-11-18T04:53:15;37.30;;;14.45;;
61385;SDS011;47256;18.904;-99.054;2023-11-18T04:55:42;25.13;;;12.98;;
61385;SDS011;47256;18.904;-99.054;2023-11-18T04:58:11;39.38;;;15.27;;
61385;SDS011;47256;18.904;-99.054;2023-11-18T05:00:38;28.90;;;12.50;;
61385;SDS011;47256;18.904;-99.054;2023-11-18T05:03:08;21.45;;;13.13;;
61385;SDS011;47256;18.904;-99.054;2023-11-18T05:05:36;18.60;;;11.93;;
61385;SDS011;47256;18.904;-99.054;2023-11-18T05:08:06;25.98;;;11.77;;
61385;SDS011;47256;18.904;-99.054;2023-11-18T05:10:36;23.65;;;12.57;;
61385;SDS011;47256;18.904;-99.054;2023-11-18T05:13:04;28.83;;;11.70;;
61385;SDS011;47256;18.904;-99.054;2023-11-18T05:15:32;20.60;;;12.00;;
61385;SDS011;47256;18.904;-99.054;2023-11-18T05:18:03;23.83;;;12.00;;
61385;SDS011;47256;18.904;-99.054;2023-11-18T05:20:34;18.20;;;11.18;;
61385;SDS011;47256;18.904;-99.054;2023-11-18T05:23:02;18.10;;;11.55;;
61385;SDS011;47256;18.904;-99.054;2023-11-18T05:25:30;25.75;;;11.50;;
61385;SDS011;47256;18.904;-99.054;2023-11-18T05:27:59;30.48;;;11.13;;
61385;SDS011;47256;18.904;-99.054;2023-11-18T05:30:26;19.02;;;10.70;;
61385;SDS011;47256;18.904;-99.054;2023-11-18T05:32:54;23.23;;;12.52;;
61385;SDS011;47256;18.904;-99.054;2023-11-18T05:35:21;21.40;;;11.38;;
61385;SDS011;47256;18.904;-99.054;2023-11-18T05:37:54;27.17;;;11.60;;
61385;SDS011;47256;18.904;-99.054;2023-11-18T05:40:22;19.92;;;11.70;;
61385;SDS011;47256;18.904;-99.054;2023-11-18T05:42:51;17.80;;;10.82;;
61385;SDS011;47256;18.904;-99.054;2023-11-18T05:45:21;20.45;;;10.50;;
61385;SDS011;47256;18.904;-99.054;2023-11-18T05:47:58;19.60;;;11.88;;
61385;SDS011;47256;18.904;-99.054;2023-11-18T05:50:25;22.67;;;11.50;;
61385;SDS011;47256;18.904;-99.054;2023-11-18T05:52:54;19.77;;;10.90;;
61385;SDS011;47256;18.904;-99.054;2023-11-18T05:55:21;21.67;;;11.95;;
61385;SDS011;47256;18.904;-99.054;2023-11-18T05:57:49;15.45;;;9.32;;
61385;SDS011;47256;18.904;-99.054;2023-11-18T06:00:17;16.00;;;9.15;;
61385;SDS011;47256;18.904;-99.054;2023-11-18T06:02:48;18.92;;;11.07;;
61385;SDS011;47256;18.904;-99.054;2023-11-18T06:05:16;15.82;;;9.40;;
61385;SDS011;47256;18.904;-99.054;2023-11-18T06:07:44;16.20;;;9.35;;
61385;SDS011;47256;18.904;-99.054;2023-11-18T06:10:13;18.20;;;10.05;;
61385;SDS011;47256;18.904;-99.054;2023-11-18T06:12:40;16.95;;;9.07;;
61385;SDS011;47256;18.904;-99.054;2023-11-18T06:15:07;19.80;;;11.25;;
61385;SDS011;47256;18.904;-99.054;2023-11-18T06:17:40;19.23;;;10.98;;
61385;SDS011;47256;18.904;-99.054;2023-11-18T06:20:11;20.13;;;11.02;;
61385;SDS011;47256;18.904;-99.054;2023-11-18T06:22:40;20.35;;;11.75;;
61385;SDS011;47256;18.904;-99.054;2023-11-18T06:25:09;20.48;;;12.57;;
61385;SDS011;47256;18.904;-99.054;2023-11-18T06:27:39;19.40;;;11.85;;
61385;SDS011;47256;18.904;-99.054;2023-11-18T06:30:06;24.17;;;12.38;;
61385;SDS011;47256;18.904;-99.054;2023-11-18T06:32:34;18.55;;;11.82;;
61385;SDS011;47256;18.904;-99.054;2023-11-18T06:35:02;23.48;;;11.25;;
61385;SDS011;47256;18.904;-99.054;2023-11-18T06:37:32;20.30;;;12.40;;
61385;SDS011;47256;18.904;-99.054;2023-11-18T06:39:59;17.35;;;11.43;;
61385;SDS011;47256;18.904;-99.054;2023-11-18T06:42:30;18.05;;;11.77;;
61385;SDS011;47256;18.904;-99.054;2023-11-18T06:44:57;18.75;;;12.02;;
61385;SDS011;47256;18.904;-99.054;2023-11-18T06:47:24;20.45;;;12.30;;
61385;SDS011;47256;18.904;-99.054;2023-11-18T06:49:52;24.98;;;11.98;;
61385;SDS011;47256;18.904;-99.054;2023-11-18T06:52:19;26.25;;;14.57;;
61385;SDS011;47256;18.904;-99.054;2023-11-18T06:54:47;20.83;;;13.27;;
61385;SDS011;47256;18.904;-99.054;2023-11-18T06:57:18;23.63;;;13.90;;
61385;SDS011;47256;18.904;-99.054;2023-11-18T06:59:45;21.63;;;11.50;;
61385;SDS011;47256;18.904;-99.054;2023-11-18T07:02:12;18.65;;;11.85;;
61385;SDS011;47256;18.904;-99.054;2023-11-18T07:04:41;19.98;;;12.50;;
61385;SDS011;47256;18.904;-99.054;2023-11-18T07:07:08;20.90;;;12.32;;
61385;SDS011;47256;18.904;-99.054;2023-11-18T07:09:36;19.17;;;12.30;;
61385;SDS011;47256;18.904;-99.054;2023-11-18T07:12:03;27.30;;;12.27;;
61385;SDS011;47256;18.904;-99.054;2023-11-18T07:14:31;19.50;;;12.13;;
61385;SDS011;47256;18.904;-99.054;2023-11-18T07:16:59;23.83;;;12.57;;
61385;SDS011;47256;18.904;-99.054;2023-11-18T07:19:26;22.23;;;12.32;;
61385;SDS011;47256;18.904;-99.054;2023-11-18T07:21:55;23.92;;;12.13;;
61385;SDS011;47256;18.904;-99.054;2023-11-18T07:24:22;23.92;;;13.23;;
61385;SDS011;47256;18.904;-99.054;2023-11-18T07:26:49;100.65;;;43.78;;
61385;SDS011;47256;18.904;-99.054;2023-11-18T07:29:17;72.13;;;34.10;;
61385;SDS011;47256;18.904;-99.054;2023-11-18T07:31:45;125.68;;;59.58;;
61385;SDS011;47256;18.904;-99.054;2023-11-18T07:34:13;187.45;;;77.47;;
61385;SDS011;47256;18.904;-99.054;2023-11-18T07:36:41;177.40;;;71.22;;
61385;SDS011;47256;18.904;-99.054;2023-11-18T07:39:12;133.85;;;50.83;;
61385;SDS011;47256;18.904;-99.054;2023-11-18T07:41:50;90.30;;;38.80;;
61385;SDS011;47256;18.904;-99.054;2023-11-18T07:44:19;81.43;;;37.55;;
61385;SDS011;47256;18.904;-99.054;2023-11-18T07:46:50;107.22;;;47.40;;
61385;SDS011;47256;18.904;-99.054;2023-11-18T07:49:17;103.45;;;45.03;;
61385;SDS011;47256;18.904;-99.054;2023-11-18T07:51:44;98.40;;;44.20;;
61385;SDS011;47256;18.904;-99.054;2023-11-18T07:54:15;107.15;;;50.88;;
61385;SDS011;47256;18.904;-99.054;2023-11-18T07:56:45;126.43;;;53.97;;
61385;SDS011;47256;18.904;-99.054;2023-11-18T07:59:13;82.65;;;40.67;;
61385;SDS011;47256;18.904;-99.054;2023-11-18T08:01:42;101.63;;;47.15;;
61385;SDS011;47256;18.904;-99.054;2023-11-18T08:04:13;112.22;;;51.45;;
61385;SDS011;47256;18.904;-99.054;2023-11-18T08:06:40;134.20;;;63.05;;
61385;SDS011;47256;18.904;-99.054;2023-11-18T08:09:09;109.90;;;51.63;;
61385;SDS011;47256;18.904;-99.054;2023-11-18T08:11:39;82.95;;;38.53;;
61385;SDS011;47256;18.904;-99.054;2023-11-18T08:14:08;70.55;;;31.65;;
61385;SDS011;47256;18.904;-99.054;2023-11-18T08:16:36;54.08;;;24.08;;
61385;SDS011;47256;18.904;-99.054;2023-11-18T08:19:03;50.70;;;24.63;;
61385;SDS011;47256;18.904;-99.054;2023-11-18T08:21:34;42.78;;;19.95;;
61385;SDS011;47256;18.904;-99.054;2023-11-18T08:24:05;39.60;;;18.13;;
61385;SDS011;47256;18.904;-99.054;2023-11-18T08:26:34;35.00;;;17.13;;
61385;SDS011;47256;18.904;-99.054;2023-11-18T08:29:02;23.70;;;12.93;;
61385;SDS011;47256;18.904;-99.054;2023-11-18T08:31:29;25.80;;;13.63;;
61385;SDS011;47256;18.904;-99.054;2023-11-18T08:33:58;18.10;;;11.50;;
61385;SDS011;47256;18.904;-99.054;2023-11-18T08:36:26;20.92;;;11.55;;
61385;SDS011;47256;18.904;-99.054;2023-11-18T08:38:53;19.88;;;9.82;;
61385;SDS011;47256;18.904;-99.054;2023-11-18T08:41:22;17.95;;;10.10;;
61385;SDS011;47256;18.904;-99.054;2023-11-18T08:43:50;19.35;;;9.60;;
61385;SDS011;47256;18.904;-99.054;2023-11-18T08:46:18;15.50;;;9.63;;
61385;SDS011;47256;18.904;-99.054;2023-11-18T08:48:46;14.88;;;9.35;;
61385;SDS011;47256;18.904;-99.054;2023-11-18T08:51:13;14.23;;;8.95;;
61385;SDS011;47256;18.904;-99.054;2023-11-18T08:53:43;24.15;;;11.25;;
61385;SDS011;47256;18.904;-99.054;2023-11-18T08:56:11;27.13;;;13.15;;
61385;SDS011;47256;18.904;-99.054;2023-11-18T08:58:43;39.00;;;17.35;;
61385;SDS011;47256;18.904;-99.054;2023-11-18T09:01:11;37.55;;;18.15;;
61385;SDS011;47256;18.904;-99.054;2023-11-18T09:03:42;35.45;;;17.05;;
61385;SDS011;47256;18.904;-99.054;2023-11-18T09:06:14;20.10;;;11.88;;
61385;SDS011;47256;18.904;-99.054;2023-11-18T09:08:45;19.60;;;10.82;;
61385;SDS011;47256;18.904;-99.054;2023-11-18T09:11:18;18.40;;;9.38;;
61385;SDS011;47256;18.904;-99.054;2023-11-18T09:13:48;15.23;;;10.07;;
61385;SDS011;47256;18.904;-99.054;2023-11-18T09:16:26;17.40;;;10.48;;
61385;SDS011;47256;18.904;-99.054;2023-11-18T09:18:56;19.00;;;10.43;;
61385;SDS011;47256;18.904;-99.054;2023-11-18T09:21:25;16.75;;;10.52;;
61385;SDS011;47256;18.904;-99.054;2023-11-18T09:23:55;20.92;;;11.43;;
61385;SDS011;47256;18.904;-99.054;2023-11-18T09:26:23;16.00;;;10.32;;
61385;SDS011;47256;18.904;-99.054;2023-11-18T09:28:55;25.75;;;10.07;;
61385;SDS011;47256;18.904;-99.054;2023-11-18T09:31:23;17.63;;;10.63;;
61385;SDS011;47256;18.904;-99.054;2023-11-18T09:33:51;23.63;;;11.85;;
61385;SDS011;47256;18.904;-99.054;2023-11-18T09:36:18;17.08;;;11.18;;
61385;SDS011;47256;18.904;-99.054;2023-11-18T09:38:47;20.77;;;10.57;;
61385;SDS011;47256;18.904;-99.054;2023-11-18T09:41:16;25.20;;;11.52;;
61385;SDS011;47256;18.904;-99.054;2023-11-18T09:43:45;17.65;;;10.88;;
61385;SDS011;47256;18.904;-99.054;2023-11-18T09:46:14;17.38;;;10.13;;
61385;SDS011;47256;18.904;-99.054;2023-11-18T09:48:50;22.30;;;10.82;;
61385;SDS011;47256;18.904;-99.054;2023-11-18T09:51:41;15.32;;;10.13;;
61385;SDS011;47256;18.904;-99.054;2023-11-18T09:54:18;17.02;;;10.35;;
61385;SDS011;47256;18.904;-99.054;2023-11-18T09:57:19;27.38;;;12.80;;
61385;SDS011;47256;18.904;-99.054;2023-11-18T10:00:08;24.70;;;12.18;;
61385;SDS011;47256;18.904;-99.054;2023-11-18T10:02:50;22.73;;;12.68;;
61385;SDS011;47256;18.904;-99.054;2023-11-18T10:05:19;25.58;;;14.13;;
61385;SDS011;47256;18.904;-99.054;2023-11-18T10:07:48;25.80;;;12.57;;
61385;SDS011;47256;18.904;-99.054;2023-11-18T10:10:17;26.52;;;11.27;;
61385;SDS011;47256;18.904;-99.054;2023-11-18T10:12:47;18.17;;;9.52;;
61385;SDS011;47256;18.904;-99.054;2023-11-18T10:15:22;13.95;;;8.88;;
61385;SDS011;47256;18.904;-99.054;2023-11-18T10:17:50;20.92;;;10.10;;
61385;SDS011;47256;18.904;-99.054;2023-11-18T10:20:24;19.73;;;10.00;;
61385;SDS011;47256;18.904;-99.054;2023-11-18T10:25:51;15.15;;;9.07;;
61385;SDS011;47256;18.904;-99.054;2023-11-18T10:28:32;19.38;;;9.90;;
61385;SDS011;47256;18.904;-99.054;2023-11-18T10:31:03;17.27;;;9.70;;
61385;SDS011;47256;18.904;-99.054;2023-11-18T10:33:34;12.52;;;8.82;;
61385;SDS011;47256;18.904;-99.054;2023-11-18T10:36:16;18.90;;;9.75;;
61385;SDS011;47256;18.904;-99.054;2023-11-18T10:38:49;17.23;;;8.75;;
61385;SDS011;47256;18.904;-99.054;2023-11-18T10:41:20;12.35;;;8.63;;
61385;SDS011;47256;18.904;-99.054;2023-11-18T10:43:49;16.23;;;9.82;;
61385;SDS011;47256;18.904;-99.054;2023-11-18T10:46:33;15.35;;;9.13;;
61385;SDS011;47256;18.904;-99.054;2023-11-18T10:49:01;17.77;;;8.98;;
61385;SDS011;47256;18.904;-99.054;2023-11-18T10:51:28;20.38;;;10.55;;
61385;SDS011;47256;18.904;-99.054;2023-11-18T10:54:00;14.98;;;8.73;;
61385;SDS011;47256;18.904;-99.054;2023-11-18T10:56:30;23.05;;;10.27;;
61385;SDS011;47256;18.904;-99.054;2023-11-18T10:58:59;12.90;;;8.82;;
61385;SDS011;47256;18.904;-99.054;2023-11-18T11:01:36;19.88;;;8.90;;
61385;SDS011;47256;18.904;-99.054;2023-11-18T11:04:11;13.73;;;9.82;;
61385;SDS011;47256;18.904;-99.054;2023-11-18T11:06:43;13.32;;;8.93;;
61385;SDS011;47256;18.904;-99.054;2023-11-18T11:09:23;19.85;;;10.65;;
61385;SDS011;47256;18.904;-99.054;2023-11-18T11:11:54;18.67;;;10.82;;
61385;SDS011;47256;18.904;-99.054;2023-11-18T11:14:33;17.88;;;9.98;;
61385;SDS011;47256;18.904;-99.054;2023-11-18T11:17:07;16.10;;;10.45;;
61385;SDS011;47256;18.904;-99.054;2023-11-18T11:19:50;12.95;;;9.68;;
61385;SDS011;47256;18.904;-99.054;2023-11-18T11:22:25;15.88;;;9.63;;
61385;SDS011;47256;18.904;-99.054;2023-11-18T11:25:09;18.52;;;10.63;;
61385;SDS011;47256;18.904;-99.054;2023-11-18T11:33:32;25.50;;;9.23;;
61385;SDS011;47256;18.904;-99.054;2023-11-18T11:36:13;11.18;;;8.88;;
61385;SDS011;47256;18.904;-99.054;2023-11-18T11:38:53;23.95;;;11.02;;
61385;SDS011;47256;18.904;-99.054;2023-11-18T11:41:23;21.90;;;10.60;;
61385;SDS011;47256;18.904;-99.054;2023-11-18T11:43:54;25.65;;;10.15;;
61385;SDS011;47256;18.904;-99.054;2023-11-18T11:46:27;24.00;;;9.77;;
61385;SDS011;47256;18.904;-99.054;2023-11-18T11:49:01;17.10;;;8.77;;
61385;SDS011;47256;18.904;-99.054;2023-11-18T11:52:04;25.17;;;10.80;;
61385;SDS011;47256;18.904;-99.054;2023-11-18T11:54:43;21.05;;;9.23;;
61385;SDS011;47256;18.904;-99.054;2023-11-18T11:57:22;20.98;;;11.45;;
61385;SDS011;47256;18.904;-99.054;2023-11-18T11:59:56;26.50;;;11.38;;
61385;SDS011;47256;18.904;-99.054;2023-11-18T12:02:27;28.48;;;11.43;;
61385;SDS011;47256;18.904;-99.054;2023-11-18T12:04:56;31.50;;;14.68;;
61385;SDS011;47256;18.904;-99.054;2023-11-18T12:07:35;31.23;;;14.23;;
61385;SDS011;47256;18.904;-99.054;2023-11-18T12:10:07;25.25;;;13.68;;
61385;SDS011;47256;18.904;-99.054;2023-11-18T12:12:41;24.23;;;12.55;;
61385;SDS011;47256;18.904;-99.054;2023-11-18T12:15:08;30.83;;;12.95;;
61385;SDS011;47256;18.904;-99.054;2023-11-18T12:20:40;30.67;;;13.75;;
61385;SDS011;47256;18.904;-99.054;2023-11-18T12:23:15;34.25;;;14.73;;
61385;SDS011;47256;18.904;-99.054;2023-11-18T12:25:49;23.83;;;13.15;;
61385;SDS011;47256;18.904;-99.054;2023-11-18T12:28:21;26.83;;;13.20;;
61385;SDS011;47256;18.904;-99.054;2023-11-18T12:31:05;28.63;;;12.85;;
61385;SDS011;47256;18.904;-99.054;2023-11-18T12:33:59;23.38;;;13.93;;
61385;SDS011;47256;18.904;-99.054;2023-11-18T12:36:46;30.20;;;15.32;;
61385;SDS011;47256;18.904;-99.054;2023-11-18T12:42:29;30.02;;;15.73;;
61385;SDS011;47256;18.904;-99.054;2023-11-18T12:45:42;27.08;;;15.75;;
61385;SDS011;47256;18.904;-99.054;2023-11-18T12:48:31;26.40;;;14.80;;
61385;SDS011;47256;18.904;-99.054;2023-11-18T12:51:02;29.75;;;16.08;;
61385;SDS011;47256;18.904;-99.054;2023-11-18T12:53:36;26.70;;;14.18;;
61385;SDS011;47256;18.904;-99.054;2023-11-18T12:56:04;25.60;;;12.80;;
61385;SDS011;47256;18.904;-99.054;2023-11-18T12:58:32;20.40;;;11.57;;
61385;SDS011;47256;18.904;-99.054;2023-11-18T13:00:59;24.55;;;13.07;;
61385;SDS011;47256;18.904;-99.054;2023-11-18T13:03:29;21.80;;;11.98;;
61385;SDS011;47256;18.904;-99.054;2023-11-18T13:05:56;22.70;;;11.93;;
61385;SDS011;47256;18.904;-99.054;2023-11-18T13:08:23;22.83;;;12.80;;
61385;SDS011;47256;18.904;-99.054;2023-11-18T13:10:52;18.30;;;11.18;;
61385;SDS011;47256;18.904;-99.054;2023-11-18T13:13:20;20.83;;;11.38;;
61385;SDS011;47256;18.904;-99.054;2023-11-18T13:15:49;25.08;;;11.57;;
61385;SDS011;47256;18.904;-99.054;2023-11-18T13:18:17;24.05;;;11.63;;
61385;SDS011;47256;18.904;-99.054;2023-11-18T13:20:58;21.80;;;10.90;;
61385;SDS011;47256;18.904;-99.054;2023-11-18T13:23:25;29.38;;;10.90;;
61385;SDS011;47256;18.904;-99.054;2023-11-18T13:25:56;35.15;;;11.77;;
61385;SDS011;47256;18.904;-99.054;2023-11-18T13:28:29;31.05;;;11.13;;
61385;SDS011;47256;18.904;-99.054;2023-11-18T13:30:58;25.35;;;10.90;;
61385;SDS011;47256;18.904;-99.054;2023-11-18T13:33:27;23.15;;;10.57;;
61385;SDS011;47256;18.904;-99.054;2023-11-18T13:35:54;22.08;;;10.98;;
61385;SDS011;47256;18.904;-99.054;2023-11-18T13:38:24;35.00;;;10.98;;
61385;SDS011;47256;18.904;-99.054;2023-11-18T13:40:52;24.90;;;11.63;;
61385;SDS011;47256;18.904;-99.054;2023-11-18T13:43:20;25.85;;;10.77;;
61385;SDS011;47256;18.904;-99.054;2023-11-18T13:45:52;21.00;;;10.07;;
61385;SDS011;47256;18.904;-99.054;2023-11-18T13:48:20;20.50;;;10.48;;
61385;SDS011;47256;18.904;-99.054;2023-11-18T13:50:49;21.60;;;10.10;;
61385;SDS011;47256;18.904;-99.054;2023-11-18T13:53:18;21.00;;;10.00;;
61385;SDS011;47256;18.904;-99.054;2023-11-18T13:55:46;24.15;;;10.18;;
61385;SDS011;47256;18.904;-99.054;2023-11-18T13:58:15;18.95;;;9.85;;
61385;SDS011;47256;18.904;-99.054;2023-11-18T14:00:42;22.05;;;9.93;;
61385;SDS011;47256;18.904;-99.054;2023-11-18T14:03:11;23.48;;;10.38;;
61385;SDS011;47256;18.904;-99.054;2023-11-18T14:05:38;15.40;;;9.82;;
61385;SDS011;47256;18.904;-99.054;2023-11-18T14:08:05;14.20;;;9.35;;
61385;SDS011;47256;18.904;-99.054;2023-11-18T14:10:36;19.92;;;9.80;;
61385;SDS011;47256;18.904;-99.054;2023-11-18T14:13:07;19.30;;;7.68;;
61385;SDS011;47256;18.904;-99.054;2023-11-18T14:15:43;17.02;;;9.02;;
61385;SDS011;47256;18.904;-99.054;2023-11-18T14:18:11;12.95;;;8.20;;
61385;SDS011;47256;18.904;-99.054;2023-11-18T14:20:40;12.68;;;8.68;;
61385;SDS011;47256;18.904;-99.054;2023-11-18T14:23:07;15.73;;;8.27;;
61385;SDS011;47256;18.904;-99.054;2023-11-18T14:25:35;16.50;;;8.52;;
61385;SDS011;47256;18.904;-99.054;2023-11-18T14:28:03;26.88;;;10.27;;
61385;SDS011;47256;18.904;-99.054;2023-11-18T14:30:31;21.38;;;9.13;;
61385;SDS011;47256;18.904;-99.054;2023-11-18T14:32:58;15.32;;;8.60;;